Time;durP1;ratioP1;P1;durP2;ratioP2;P2;SDS_P1;SDS_P2;PMS_P1;PMS_P2;Temp;Humidity;BMP_temperature;BMP_pressure;BME280_temperature;BME280_humidity;BME280_pressure;Samples;Min_cycle;Max_cycle;Signal;HPM_P1;HPM_P2
2022/12/03 00:02:16;;;;;;;7.47;5.43;;;6.10;99.90;;;;;;5037208;28;20470;-79
2022/12/03 00:04:43;;;;;;;8.13;4.95;;;6.10;99.90;;;;;;5040243;28;20053;-78
2022/12/03 00:07:10;;;;;;;6.93;5.28;;;6.10;99.90;;;;;;5035300;28;20083;-78
2022/12/03 00:09:37;;;;;;;5.93;4.85;;;6.20;99.90;;;;;;5039085;28;20048;-79
2022/12/03 00:12:03;;;;;;;6.75;5.05;;;6.20;99.90;;;;;;5046654;28;20455;-79
2022/12/03 00:14:30;;;;;;;7.20;4.65;;;6.20;99.90;;;;;;5035301;28;20638;-79
2022/12/03 00:16:58;;;;;;;6.82;4.75;;;6.20;99.90;;;;;;5050697;28;20742;-79
2022/12/03 00:19:25;;;;;;;7.45;5.43;;;6.20;99.90;;;;;;5046735;28;20044;-79
2022/12/03 00:21:53;;;;;;;6.43;5.13;;;6.20;99.90;;;;;;5047504;28;20480;-79
2022/12/03 00:24:20;;;;;;;6.35;4.93;;;6.20;99.90;;;;;;5049404;28;20063;-79
2022/12/03 00:26:47;;;;;;;5.60;4.53;;;6.20;99.90;;;;;;5035759;28;20068;-78
2022/12/03 00:29:13;;;;;;;7.97;4.78;;;6.20;99.90;;;;;;5046959;28;20057;-79
2022/12/03 00:31:41;;;;;;;7.47;5.03;;;6.20;99.90;;;;;;5039477;28;20139;-79
2022/12/03 00:34:08;;;;;;;5.90;4.72;;;6.20;99.90;;;;;;5034899;28;20076;-78
2022/12/03 00:36:36;;;;;;;7.82;5.13;;;6.20;99.90;;;;;;5040481;28;20067;-79
2022/12/03 00:39:03;;;;;;;5.53;4.28;;;6.20;99.90;;;;;;5052562;28;20047;-79
2022/12/03 00:41:30;;;;;;;5.10;3.97;;;6.20;99.90;;;;;;5046870;28;20053;-79
2022/12/03 00:43:57;;;;;;;6.63;4.13;;;6.20;99.90;;;;;;5048480;28;20048;-78
2022/12/03 00:46:24;;;;;;;5.05;3.63;;;6.20;99.90;;;;;;5055153;28;20063;-79
2022/12/03 00:48:51;;;;;;;4.90;4.03;;;6.20;99.90;;;;;;5047362;28;20060;-79
2022/12/03 00:51:19;;;;;;;4.97;3.88;;;6.20;99.90;;;;;;5045518;28;20052;-80
2022/12/03 00:53:45;;;;;;;6.43;5.05;;;6.20;99.90;;;;;;5030262;28;20049;-79
2022/12/03 00:56:12;;;;;;;5.97;4.22;;;6.20;99.90;;;;;;5038289;28;20452;-78
2022/12/03 00:58:39;;;;;;;6.32;4.38;;;6.20;99.90;;;;;;5042927;28;20548;-78
2022/12/03 01:01:06;;;;;;;4.65;3.67;;;6.20;99.90;;;;;;5046366;28;20053;-79
2022/12/03 01:03:32;;;;;;;7.97;4.53;;;6.20;99.90;;;;;;5031983;28;20567;-79
2022/12/03 01:06:00;;;;;;;7.75;5.85;;;6.20;99.90;;;;;;5050420;28;20397;-79
2022/12/03 01:08:27;;;;;;;5.50;4.22;;;6.20;99.90;;;;;;5047022;28;20136;-79
2022/12/03 01:10:54;;;;;;;6.90;4.03;;;6.20;99.90;;;;;;5031975;28;20132;-79
2022/12/03 01:13:21;;;;;;;5.93;4.53;;;6.20;99.90;;;;;;5050071;28;20052;-78
2022/12/03 01:15:48;;;;;;;4.75;3.63;;;6.20;99.90;;;;;;5037831;28;20051;-79
2022/12/03 01:18:14;;;;;;;5.40;4.20;;;6.20;99.90;;;;;;5045614;28;20105;-79
2022/12/03 01:20:41;;;;;;;5.53;4.35;;;6.20;99.90;;;;;;5047155;28;20375;-79
2022/12/03 01:23:08;;;;;;;4.85;3.90;;;6.20;99.90;;;;;;5042998;28;20195;-79
2022/12/03 01:25:42;;;;;;;6.57;4.78;;;6.20;99.90;;;;;;5054017;28;20230;-79
2022/12/03 01:28:10;;;;;;;7.90;4.32;;;6.20;99.90;;;;;;5045903;28;20063;-79
2022/12/03 01:32:15;;;;;;;6.57;4.57;;;6.20;99.90;;;;;;5048784;28;20045;-79
2022/12/03 01:33:23;;;;;;;6.28;4.50;;;6.20;99.90;;;;;;5049099;28;20144;-79
2022/12/03 01:35:50;;;;;;;7.45;4.97;;;6.10;99.90;;;;;;5034353;28;20387;-79
2022/12/03 01:38:17;;;;;;;7.72;4.75;;;6.20;99.90;;;;;;5046388;28;20152;-79
2022/12/03 01:40:44;;;;;;;7.30;6.00;;;6.10;99.90;;;;;;5035672;28;20049;-78
2022/12/03 01:43:10;;;;;;;8.70;5.90;;;6.10;99.90;;;;;;5045164;28;20075;-79
2022/12/03 01:45:38;;;;;;;7.93;5.97;;;6.10;99.90;;;;;;5036883;28;20053;-79
2022/12/03 01:48:05;;;;;;;11.63;7.40;;;6.10;99.90;;;;;;5043777;28;20052;-79
2022/12/03 01:50:32;;;;;;;8.50;6.88;;;6.10;99.90;;;;;;5037836;28;20053;-79
2022/12/03 01:53:00;;;;;;;8.85;7.20;;;6.00;99.90;;;;;;5044179;28;20077;-79
2022/12/03 01:55:27;;;;;;;9.60;6.57;;;6.00;99.90;;;;;;5034206;28;20302;-79
2022/12/03 01:57:56;;;;;;;9.15;6.65;;;6.00;99.90;;;;;;5029955;28;20361;-79
2022/12/03 02:00:25;;;;;;;12.15;7.75;;;6.00;99.90;;;;;;5046994;28;20136;-78
2022/12/03 02:02:59;;;;;;;10.23;6.93;;;5.90;99.90;;;;;;5034592;28;20061;-79
2022/12/03 02:05:29;;;;;;;8.35;6.40;;;5.90;99.90;;;;;;5022896;28;20058;-79
2022/12/03 02:07:56;;;;;;;7.85;5.80;;;5.90;99.90;;;;;;5035967;28;20053;-78
2022/12/03 02:10:42;;;;;;;8.55;6.25;;;6.00;99.90;;;;;;5049768;28;20458;-78
2022/12/03 02:13:09;;;;;;;9.10;6.15;;;6.00;99.90;;;;;;5049092;28;20132;-79
2022/12/03 02:15:37;;;;;;;10.40;7.05;;;6.00;99.90;;;;;;5037996;28;20045;-79
2022/12/03 02:18:04;;;;;;;8.90;6.30;;;6.00;99.90;;;;;;5036222;28;20070;-78
2022/12/03 02:20:32;;;;;;;8.93;6.53;;;6.00;99.90;;;;;;5038421;28;20372;-79
2022/12/03 02:23:05;;;;;;;8.93;6.53;;;6.00;99.90;;;;;;5037686;28;20048;-79
2022/12/03 02:25:33;;;;;;;11.27;6.95;;;6.00;99.90;;;;;;5037665;28;20083;-79
2022/12/03 02:28:00;;;;;;;10.45;7.07;;;5.90;99.90;;;;;;5040388;28;20144;-79
2022/12/03 02:30:27;;;;;;;9.52;7.53;;;5.90;99.90;;;;;;5040422;28;20547;-79
2022/12/03 02:32:55;;;;;;;9.48;6.82;;;5.90;99.90;;;;;;5048557;28;20984;-78
2022/12/03 02:35:26;;;;;;;11.13;8.48;;;5.90;99.90;;;;;;5060213;28;20568;-78
2022/12/03 02:38:17;;;;;;;11.27;8.05;;;5.90;99.90;;;;;;5052986;28;20053;-79
2022/12/03 02:40:44;;;;;;;9.82;7.00;;;5.90;99.90;;;;;;5042849;28;20045;-78
2022/12/03 02:43:13;;;;;;;9.65;7.03;;;5.90;99.90;;;;;;5055340;28;20043;-79
2022/12/03 02:45:41;;;;;;;8.48;6.65;;;5.90;99.90;;;;;;5038652;28;20242;-78
2022/12/03 02:48:10;;;;;;;9.32;6.97;;;5.90;99.90;;;;;;5051136;28;20051;-78
2022/12/03 02:50:40;;;;;;;9.48;6.35;;;5.90;99.90;;;;;;5028242;28;20063;-78
2022/12/03 02:53:09;;;;;;;9.35;6.40;;;5.90;99.90;;;;;;5042522;28;20059;-78
2022/12/03 02:55:36;;;;;;;9.52;6.45;;;5.90;99.90;;;;;;5046581;28;20091;-78
2022/12/03 02:58:03;;;;;;;7.95;5.72;;;5.90;99.90;;;;;;5049602;28;20060;-78
2022/12/03 03:00:30;;;;;;;7.10;5.15;;;5.90;99.90;;;;;;5044174;28;20060;-78
2022/12/03 03:02:56;;;;;;;6.68;5.38;;;6.00;99.90;;;;;;5039795;28;20060;-78
2022/12/03 03:05:23;;;;;;;7.03;4.60;;;5.90;99.90;;;;;;5052023;28;20062;-78
2022/12/03 03:07:50;;;;;;;7.13;4.63;;;6.00;99.90;;;;;;5052969;28;20131;-78
2022/12/03 03:10:19;;;;;;;6.68;4.20;;;6.00;99.90;;;;;;5051815;28;20053;-78
2022/12/03 03:12:46;;;;;;;6.40;4.22;;;6.00;99.90;;;;;;5051790;28;20064;-78
2022/12/03 03:15:13;;;;;;;5.45;4.22;;;6.00;99.90;;;;;;5052767;28;20041;-78
2022/12/03 03:17:40;;;;;;;7.43;4.95;;;6.00;99.90;;;;;;5049676;28;20100;-78
2022/12/03 03:20:08;;;;;;;7.28;4.72;;;6.00;99.90;;;;;;5048599;28;20055;-78
2022/12/03 03:22:36;;;;;;;7.78;5.18;;;6.00;99.90;;;;;;5044760;28;20054;-78
2022/12/03 03:25:03;;;;;;;8.48;5.78;;;6.00;99.90;;;;;;5054613;28;20048;-78
2022/12/03 03:27:30;;;;;;;8.30;5.47;;;6.00;99.90;;;;;;5050549;28;20513;-78
2022/12/03 03:29:57;;;;;;;7.07;5.38;;;6.00;99.90;;;;;;5048867;28;20481;-78
2022/12/03 03:32:25;;;;;;;6.85;4.40;;;6.00;99.90;;;;;;5030195;28;20207;-78
2022/12/03 03:34:52;;;;;;;5.28;4.05;;;6.00;99.90;;;;;;5048599;28;20144;-78
2022/12/03 03:37:19;;;;;;;8.20;5.65;;;6.00;99.90;;;;;;5051857;28;20058;-78
2022/12/03 03:39:45;;;;;;;9.48;5.63;;;6.00;99.90;;;;;;5040201;28;20084;-78
2022/12/03 03:42:12;;;;;;;10.13;5.65;;;5.90;99.90;;;;;;5049715;28;20550;-78
2022/12/03 03:44:39;;;;;;;7.82;5.75;;;5.90;99.90;;;;;;5057055;28;20055;-79
2022/12/03 03:47:06;;;;;;;7.18;5.07;;;5.90;99.90;;;;;;5035863;28;20051;-78
2022/12/03 03:49:33;;;;;;;5.93;4.97;;;5.90;99.90;;;;;;5025794;28;20049;-78
2022/12/03 03:51:59;;;;;;;9.43;5.32;;;5.90;99.90;;;;;;5040734;28;20053;-78
2022/12/03 03:54:27;;;;;;;7.88;4.78;;;5.90;99.90;;;;;;5038445;28;20061;-78
2022/12/03 03:56:54;;;;;;;6.28;4.43;;;5.90;99.90;;;;;;5051644;28;20057;-78
2022/12/03 03:59:20;;;;;;;10.30;6.07;;;5.90;99.90;;;;;;5049073;28;20144;-78
2022/12/03 04:01:47;;;;;;;9.32;5.43;;;5.90;99.90;;;;;;5025986;28;20068;-78
2022/12/03 04:04:22;;;;;;;9.45;5.55;;;5.90;99.90;;;;;;5052032;28;20499;-78
2022/12/03 04:06:49;;;;;;;7.85;4.78;;;5.90;99.90;;;;;;5036213;28;20053;-77
2022/12/03 04:09:15;;;;;;;7.05;4.80;;;5.90;99.90;;;;;;5054669;28;20045;-78
2022/12/03 04:14:28;;;;;;;9.20;5.88;;;5.90;99.90;;;;;;5051434;28;20143;-78
2022/12/03 04:16:55;;;;;;;8.50;5.28;;;5.90;99.90;;;;;;5050653;28;20459;-78
2022/12/03 04:19:22;;;;;;;7.88;5.40;;;5.90;99.90;;;;;;5048226;28;20052;-78
2022/12/03 04:24:33;;;;;;;8.57;5.97;;;5.90;99.90;;;;;;5051444;28;20045;-78
2022/12/03 04:29:46;;;;;;;8.25;5.20;;;5.90;99.90;;;;;;5052395;28;20161;-78
2022/12/03 04:37:44;;;;;;;7.60;5.40;;;5.90;99.90;;;;;;5049557;28;20076;-79
2022/12/03 04:42:57;;;;;;;10.05;5.97;;;5.90;99.90;;;;;;5052881;28;20052;-78
2022/12/03 04:45:23;;;;;;;9.18;5.65;;;5.90;99.90;;;;;;5045687;28;20062;-78
2022/12/03 04:47:50;;;;;;;10.57;6.70;;;5.90;99.90;;;;;;5051260;28;20507;-78
2022/12/03 04:50:17;;;;;;;13.07;6.93;;;5.90;99.90;;;;;;5049529;28;20437;-78
2022/12/03 04:52:43;;;;;;;7.45;5.35;;;5.90;99.90;;;;;;5057134;28;20056;-78
2022/12/03 04:55:10;;;;;;;7.88;6.15;;;5.90;99.90;;;;;;5053704;28;20063;-78
2022/12/03 04:57:37;;;;;;;10.95;7.68;;;5.90;99.90;;;;;;5054916;28;20059;-78
2022/12/03 05:00:04;;;;;;;12.40;7.72;;;5.80;99.90;;;;;;5054723;28;20532;-78
2022/12/03 05:02:31;;;;;;;9.95;7.35;;;5.80;99.90;;;;;;5034816;28;20131;-78
2022/12/03 05:04:58;;;;;;;9.55;6.55;;;5.80;99.90;;;;;;5053383;28;20644;-78
2022/12/03 05:07:25;;;;;;;11.77;8.10;;;5.80;99.90;;;;;;5057737;28;20159;-78
2022/12/03 05:09:51;;;;;;;9.05;6.18;;;5.80;99.90;;;;;;5055413;28;20061;-78
2022/12/03 05:12:18;;;;;;;10.65;7.00;;;5.80;99.90;;;;;;5040168;28;20158;-78
2022/12/03 05:14:45;;;;;;;10.27;5.78;;;5.90;99.90;;;;;;5050089;28;20059;-78
2022/12/03 05:17:12;;;;;;;11.65;7.68;;;5.90;99.90;;;;;;5038850;28;20080;-78
2022/12/03 05:22:24;;;;;;;12.32;8.07;;;5.70;99.90;;;;;;5049873;28;20183;-78
2022/12/03 05:24:51;;;;;;;13.25;8.32;;;5.70;99.90;;;;;;5056458;28;20056;-77
2022/12/03 05:27:20;;;;;;;10.85;7.20;;;5.70;99.90;;;;;;5038440;28;20098;-78
2022/12/03 05:29:49;;;;;;;9.50;6.82;;;5.70;99.90;;;;;;5048321;28;20044;-78
2022/12/03 05:32:16;;;;;;;8.75;6.97;;;5.70;99.90;;;;;;5037893;28;20068;-78
2022/12/03 05:34:43;;;;;;;13.07;8.38;;;5.80;99.90;;;;;;5052938;28;20048;-78
2022/12/03 05:37:10;;;;;;;11.13;7.85;;;5.70;99.90;;;;;;5039579;28;20052;-78
2022/12/03 05:39:37;;;;;;;8.65;5.95;;;5.70;99.90;;;;;;5036303;28;20053;-78
2022/12/03 05:44:48;;;;;;;13.23;6.72;;;5.70;99.90;;;;;;5052030;28;20072;-78
2022/12/03 05:47:15;;;;;;;12.50;7.70;;;5.70;99.90;;;;;;5044974;28;20476;-78
2022/12/03 05:49:42;;;;;;;10.82;7.82;;;5.70;99.90;;;;;;5035166;28;20056;-78
2022/12/03 05:52:08;;;;;;;9.60;6.45;;;5.70;99.90;;;;;;5052015;28;20529;-78
2022/12/03 05:54:35;;;;;;;9.52;6.53;;;5.70;99.90;;;;;;5047418;28;20044;-78
2022/12/03 05:57:02;;;;;;;8.27;6.32;;;5.70;99.90;;;;;;5064553;28;20541;-77
2022/12/03 05:59:29;;;;;;;8.45;6.07;;;5.80;99.90;;;;;;5047680;28;20048;-78
2022/12/03 06:01:56;;;;;;;7.70;5.15;;;5.80;99.90;;;;;;5065466;28;20139;-78
2022/12/03 06:04:22;;;;;;;5.90;4.88;;;5.80;99.90;;;;;;5061911;28;20052;-78
2022/12/03 06:06:49;;;;;;;9.52;6.05;;;5.90;99.90;;;;;;5063055;28;20048;-78
2022/12/03 06:09:16;;;;;;;7.55;5.30;;;5.90;99.90;;;;;;5063645;28;20048;-78
2022/12/03 06:11:42;;;;;;;7.13;5.25;;;5.90;99.90;;;;;;5063240;28;20063;-78
2022/12/03 06:14:09;;;;;;;8.60;5.90;;;5.90;99.90;;;;;;5062089;28;20053;-78
2022/12/03 06:16:36;;;;;;;6.25;4.32;;;5.90;99.90;;;;;;5047423;28;20048;-78
2022/12/03 06:19:03;;;;;;;7.32;4.95;;;5.90;99.90;;;;;;5025943;28;20595;-78
2022/12/03 06:21:29;;;;;;;7.72;4.50;;;6.00;99.90;;;;;;5027105;28;20055;-78
2022/12/03 06:23:56;;;;;;;6.82;5.10;;;6.00;99.90;;;;;;5046458;28;20044;-78
2022/12/03 06:26:23;;;;;;;5.57;4.10;;;6.00;99.90;;;;;;5064148;28;20630;-78
2022/12/03 06:28:50;;;;;;;7.05;5.03;;;6.00;99.90;;;;;;5062692;28;20380;-78
2022/12/03 06:31:16;;;;;;;7.30;4.95;;;6.00;99.90;;;;;;5063545;28;20084;-78
2022/12/03 06:33:43;;;;;;;7.18;4.97;;;6.00;99.90;;;;;;5044094;28;20049;-78
2022/12/03 06:36:10;;;;;;;7.63;4.82;;;6.00;99.90;;;;;;5042531;28;20379;-77
2022/12/03 06:38:37;;;;;;;6.93;4.63;;;6.00;99.90;;;;;;5061417;28;20067;-79
2022/12/03 06:41:03;;;;;;;7.80;4.63;;;6.00;99.90;;;;;;5060634;28;20045;-78
2022/12/03 06:43:30;;;;;;;8.27;3.97;;;6.00;99.90;;;;;;5061111;28;20045;-78
2022/12/03 06:45:57;;;;;;;6.40;4.35;;;6.00;99.90;;;;;;5044886;28;20048;-79
2022/12/03 06:48:24;;;;;;;6.88;4.20;;;6.00;99.90;;;;;;5061629;28;20045;-78
2022/12/03 06:50:51;;;;;;;7.80;5.40;;;6.00;99.90;;;;;;5040393;28;20107;-78
2022/12/03 06:53:18;;;;;;;6.25;4.15;;;6.00;99.90;;;;;;5057576;28;20646;-78
2022/12/03 06:55:45;;;;;;;5.22;4.20;;;6.00;99.90;;;;;;5043243;28;20440;-78
2022/12/03 06:58:12;;;;;;;7.13;4.75;;;6.00;99.90;;;;;;5056987;28;20055;-78
2022/12/03 07:00:39;;;;;;;6.38;4.47;;;5.90;99.90;;;;;;5060213;28;20040;-78
2022/12/03 07:03:06;;;;;;;6.47;4.90;;;6.00;99.90;;;;;;5043109;28;20044;-77
2022/12/03 07:05:33;;;;;;;6.55;4.35;;;6.00;99.90;;;;;;5049716;28;20139;-77
2022/12/03 07:08:00;;;;;;;6.88;5.18;;;6.00;99.90;;;;;;5058804;28;20136;-77
2022/12/03 07:10:26;;;;;;;5.80;4.18;;;6.00;99.90;;;;;;5038116;28;20048;-78
2022/12/03 07:12:53;;;;;;;5.72;4.28;;;6.00;99.90;;;;;;5045640;28;20072;-77
2022/12/03 07:15:20;;;;;;;5.53;3.60;;;6.00;99.90;;;;;;5054013;28;20045;-77
2022/12/03 07:17:47;;;;;;;6.00;4.38;;;6.00;99.90;;;;;;5040480;28;20055;-78
2022/12/03 07:20:15;;;;;;;5.25;3.60;;;6.00;99.90;;;;;;5060582;28;20056;-77
2022/12/03 07:22:41;;;;;;;5.35;3.80;;;6.00;99.90;;;;;;5058041;28;20044;-78
2022/12/03 07:25:08;;;;;;;5.65;4.35;;;6.00;99.90;;;;;;5061572;28;20071;-79
2022/12/03 07:27:35;;;;;;;6.53;4.32;;;6.10;99.90;;;;;;5024904;28;20360;-79
2022/12/03 07:30:02;;;;;;;5.10;3.88;;;6.00;99.90;;;;;;5060024;28;20052;-79
2022/12/03 07:32:29;;;;;;;5.82;3.83;;;6.00;99.90;;;;;;5040972;28;20057;-79
2022/12/03 07:34:56;;;;;;;4.82;3.17;;;6.00;99.90;;;;;;5037462;28;20395;-79
2022/12/03 07:37:23;;;;;;;7.50;4.55;;;6.00;99.90;;;;;;5036887;28;20041;-78
2022/12/03 07:39:51;;;;;;;6.30;4.03;;;6.00;99.90;;;;;;5053314;28;20056;-79
2022/12/03 07:42:18;;;;;;;5.60;4.43;;;6.00;99.90;;;;;;5057957;28;20040;-79
2022/12/03 07:44:45;;;;;;;7.22;4.72;;;6.00;99.90;;;;;;5057721;28;20072;-79
2022/12/03 07:47:12;;;;;;;6.68;4.60;;;6.00;99.90;;;;;;5038478;28;20507;-79
2022/12/03 07:49:38;;;;;;;6.55;4.47;;;5.90;99.90;;;;;;5050103;28;20083;-79
2022/12/03 07:52:06;;;;;;;5.32;4.07;;;5.90;99.90;;;;;;5040262;28;20048;-79
2022/12/03 07:54:32;;;;;;;7.18;4.57;;;5.90;99.90;;;;;;5054775;28;20048;-79
2022/12/03 07:56:59;;;;;;;6.15;4.07;;;5.90;99.90;;;;;;5059383;28;20148;-79
2022/12/03 07:59:27;;;;;;;4.85;3.45;;;5.90;99.90;;;;;;5057742;28;20048;-79
2022/12/03 08:01:54;;;;;;;5.60;3.83;;;5.90;99.90;;;;;;5051899;28;20525;-78
2022/12/03 08:04:21;;;;;;;7.30;3.90;;;5.90;99.90;;;;;;5059260;28;20059;-79
2022/12/03 08:06:48;;;;;;;5.78;3.80;;;5.90;99.90;;;;;;5060967;28;20491;-79
2022/12/03 08:09:15;;;;;;;5.97;4.28;;;5.90;99.90;;;;;;5055671;28;20083;-79
2022/12/03 08:11:43;;;;;;;4.55;3.67;;;5.90;99.90;;;;;;5036682;28;20488;-79
2022/12/03 08:14:14;;;;;;;5.95;3.78;;;5.90;99.90;;;;;;5053160;28;20052;-79
2022/12/03 08:16:42;;;;;;;6.15;4.43;;;5.90;99.90;;;;;;5043127;28;20048;-79
2022/12/03 08:19:12;;;;;;;5.18;3.60;;;5.90;99.90;;;;;;5042444;28;20378;-79
2022/12/03 08:21:39;;;;;;;6.68;4.40;;;5.90;99.90;;;;;;5039906;28;20080;-78
2022/12/03 08:24:19;;;;;;;9.10;4.68;;;5.90;99.90;;;;;;5036823;28;20060;-78
2022/12/03 08:26:46;;;;;;;5.07;3.65;;;5.90;99.90;;;;;;5046197;28;20067;-79
2022/12/03 08:29:18;;;;;;;5.60;3.50;;;5.90;99.90;;;;;;5057586;28;20048;-78
2022/12/03 08:31:50;;;;;;;4.22;2.97;;;6.00;99.90;;;;;;5043858;28;20052;-79
2022/12/03 08:34:19;;;;;;;6.13;3.75;;;6.00;99.90;;;;;;5067532;28;20058;-79
2022/12/03 08:36:48;;;;;;;4.72;3.58;;;6.10;99.90;;;;;;5060026;28;20368;-78
2022/12/03 08:39:39;;;;;;;4.25;2.70;;;6.20;99.90;;;;;;5060013;28;20052;-79
2022/12/03 08:45:21;;;;;;;4.43;3.08;;;6.20;99.90;;;;;;5069003;28;20055;-79
2022/12/03 08:47:48;;;;;;;4.45;2.65;;;6.20;99.90;;;;;;5065602;28;20282;-78
2022/12/03 08:50:26;;;;;;;4.03;3.00;;;6.30;99.90;;;;;;5062949;28;20056;-79
2022/12/03 08:52:53;;;;;;;4.75;3.55;;;6.30;99.90;;;;;;5040666;28;20052;-78
2022/12/03 08:55:35;;;;;;;5.32;3.40;;;6.20;99.90;;;;;;5036004;28;20060;-79
2022/12/03 08:58:20;;;;;;;4.65;3.00;;;6.20;99.90;;;;;;5052963;28;20111;-79
2022/12/03 09:01:09;;;;;;;4.55;3.15;;;6.20;99.90;;;;;;5047206;28;20504;-79
2022/12/03 09:03:38;;;;;;;5.82;3.03;;;6.30;99.90;;;;;;5059028;28;20048;-79
2022/12/03 09:06:05;;;;;;;4.80;3.00;;;6.30;99.90;;;;;;5058452;28;20079;-77
2022/12/03 09:08:31;;;;;;;3.97;2.50;;;6.40;99.90;;;;;;5064740;28;20055;-77
2022/12/03 09:10:58;;;;;;;3.75;2.55;;;6.40;99.90;;;;;;5059783;28;20055;-76
2022/12/03 09:13:25;;;;;;;9.02;3.40;;;6.40;99.90;;;;;;5046062;28;20048;-77
2022/12/03 09:15:52;;;;;;;3.75;2.95;;;6.40;99.90;;;;;;5039402;28;20049;-77
2022/12/03 09:18:19;;;;;;;6.00;3.13;;;6.40;99.90;;;;;;5048536;28;20183;-76
2022/12/03 09:20:46;;;;;;;3.03;2.30;;;6.50;99.90;;;;;;5051247;28;20048;-77
2022/12/03 09:23:13;;;;;;;3.95;2.67;;;6.50;99.90;;;;;;5059974;28;20048;-77
2022/12/03 09:25:39;;;;;;;4.68;2.80;;;6.50;99.90;;;;;;5054409;28;20058;-77
2022/12/03 09:28:07;;;;;;;4.63;3.28;;;6.50;99.90;;;;;;5039484;28;20083;-77
2022/12/03 09:30:33;;;;;;;4.78;3.08;;;6.60;99.90;;;;;;5055229;28;20521;-77
2022/12/03 09:33:01;;;;;;;4.30;3.10;;;6.60;99.90;;;;;;5042985;28;20060;-80
2022/12/03 09:35:27;;;;;;;4.95;3.17;;;6.60;99.90;;;;;;5059435;28;20052;-80
2022/12/03 09:37:54;;;;;;;5.90;3.40;;;6.70;99.90;;;;;;5031905;28;20060;-80
2022/12/03 09:40:21;;;;;;;5.30;3.85;;;6.80;99.90;;;;;;5059644;28;20496;-80
2022/12/03 09:42:50;;;;;;;6.32;3.33;;;6.70;99.90;;;;;;5058888;28;20056;-80
2022/12/03 09:45:17;;;;;;;5.20;3.03;;;6.80;99.90;;;;;;5043155;28;20419;-79
2022/12/03 09:47:45;;;;;;;5.85;3.03;;;6.80;99.90;;;;;;5022070;28;20060;-79
2022/12/03 09:50:13;;;;;;;5.03;3.55;;;6.80;99.90;;;;;;5051702;28;20044;-79
2022/12/03 09:52:40;;;;;;;7.43;3.85;;;6.80;99.90;;;;;;5047593;28;20493;-79
2022/12/03 09:55:11;;;;;;;6.85;4.22;;;6.80;99.90;;;;;;5037194;28;20389;-80
2022/12/03 09:57:38;;;;;;;5.50;3.58;;;6.90;99.90;;;;;;5058232;28;20052;-80
2022/12/03 10:00:25;;;;;;;5.40;3.80;;;6.90;99.90;;;;;;5023082;28;20132;-79
2022/12/03 10:02:54;;;;;;;6.45;3.78;;;7.00;99.90;;;;;;5040860;28;20052;-79
2022/12/03 10:05:21;;;;;;;5.13;3.05;;;7.00;99.90;;;;;;5043050;28;20371;-79
2022/12/03 10:07:48;;;;;;;4.88;3.10;;;7.10;99.90;;;;;;5025417;28;20044;-79
2022/12/03 10:10:17;;;;;;;3.88;2.33;;;7.20;99.90;;;;;;5060597;28;20116;-79
2022/12/03 10:12:43;;;;;;;5.22;3.53;;;7.20;99.90;;;;;;5072413;28;20163;-80
2022/12/03 10:15:15;;;;;;;6.07;3.75;;;7.30;99.90;;;;;;5040180;28;20508;-79
2022/12/03 10:17:42;;;;;;;3.90;2.67;;;7.30;99.90;;;;;;5043939;28;20052;-80
2022/12/03 10:20:10;;;;;;;3.58;2.55;;;7.30;99.90;;;;;;5059430;28;20056;-80
2022/12/03 10:22:37;;;;;;;4.65;3.10;;;7.40;99.90;;;;;;5040793;28;20044;-80
2022/12/03 10:25:07;;;;;;;3.88;2.40;;;7.40;99.90;;;;;;5058723;28;20066;-80
2022/12/03 10:27:34;;;;;;;5.93;2.92;;;7.50;99.90;;;;;;5042702;28;20124;-80
2022/12/03 10:30:03;;;;;;;4.32;2.60;;;7.50;99.90;;;;;;5042153;28;20495;-80
2022/12/03 10:32:43;;;;;;;4.40;2.97;;;7.50;99.90;;;;;;5044978;28;20415;-80
2022/12/03 10:35:22;;;;;;;4.05;2.35;;;7.50;99.90;;;;;;5044170;28;20506;-81
2022/12/03 10:38:25;;;;;;;4.25;3.30;;;7.50;99.90;;;;;;5048737;28;20079;-80
2022/12/03 10:40:52;;;;;;;3.58;2.30;;;7.60;99.90;;;;;;5056992;28;20048;-80
2022/12/03 10:43:18;;;;;;;4.47;2.35;;;7.70;99.90;;;;;;5058434;28;20052;-80
2022/12/03 10:45:49;;;;;;;3.60;2.05;;;7.70;99.90;;;;;;5058115;28;20322;-80
2022/12/03 10:48:20;;;;;;;3.97;2.17;;;7.70;99.90;;;;;;5053428;28;20131;-81
2022/12/03 10:51:26;;;;;;;3.13;2.10;;;7.80;99.90;;;;;;5058907;28;20102;-80
2022/12/03 10:53:53;;;;;;;3.97;2.13;;;7.80;99.90;;;;;;5040846;28;20067;-80
2022/12/03 10:56:24;;;;;;;2.83;2.03;;;7.90;99.90;;;;;;5021211;28;20048;-80
2022/12/03 10:58:50;;;;;;;3.63;2.30;;;7.90;99.90;;;;;;5031449;28;20237;-81
2022/12/03 11:01:20;;;;;;;2.55;2.17;;;7.90;99.90;;;;;;5041062;28;20445;-80
2022/12/03 11:03:47;;;;;;;4.50;2.53;;;7.90;99.90;;;;;;5055367;28;20075;-80
2022/12/03 11:06:19;;;;;;;3.65;2.40;;;7.90;99.90;;;;;;5033608;28;20056;-80
2022/12/03 11:08:51;;;;;;;4.43;2.78;;;7.90;99.90;;;;;;5026702;28;20139;-80
2022/12/03 11:11:27;;;;;;;3.72;2.38;;;7.90;99.90;;;;;;5030307;28;20067;-80
2022/12/03 11:13:56;;;;;;;4.53;2.42;;;8.00;99.90;;;;;;5024719;28;20084;-80
2022/12/03 11:16:38;;;;;;;4.68;3.13;;;8.00;99.90;;;;;;5025710;28;20478;-81
2022/12/03 11:19:16;;;;;;;4.35;3.00;;;8.10;99.90;;;;;;5042531;28;20132;-80
2022/12/03 11:22:04;;;;;;;3.17;2.33;;;8.10;99.90;;;;;;5040160;28;20052;-80
2022/12/03 11:24:32;;;;;;;3.17;2.30;;;8.10;99.90;;;;;;5059740;28;20551;-80
2022/12/03 11:26:59;;;;;;;3.72;2.53;;;8.00;99.90;;;;;;5040129;28;20066;-80
2022/12/03 11:29:53;;;;;;;4.18;2.80;;;8.00;99.90;;;;;;5059560;28;20218;-80
2022/12/03 11:32:58;;;;;;;4.65;2.50;;;7.90;99.90;;;;;;5043145;28;20078;-80
2022/12/03 11:35:35;;;;;;;3.85;2.65;;;7.90;99.90;;;;;;5013575;28;20060;-79
2022/12/03 11:38:36;;;;;;;5.10;2.92;;;7.80;99.90;;;;;;5029555;28;20055;-80
2022/12/03 11:41:06;;;;;;;5.90;3.17;;;7.80;99.90;;;;;;5059417;28;20157;-81
2022/12/03 11:43:52;;;;;;;3.95;2.85;;;7.70;99.90;;;;;;5057337;28;20048;-81
2022/12/03 11:46:27;;;;;;;3.65;2.55;;;7.80;99.90;;;;;;5071031;28;20048;-80
2022/12/03 11:48:55;;;;;;;3.78;2.70;;;7.80;99.90;;;;;;5074541;28;20506;-80
2022/12/03 11:51:24;;;;;;;5.22;2.97;;;7.90;99.90;;;;;;5055649;28;20044;-80
2022/12/03 11:53:52;;;;;;;3.97;2.55;;;8.00;99.90;;;;;;5056835;28;20060;-80
2022/12/03 11:56:21;;;;;;;3.42;2.75;;;8.00;99.90;;;;;;5031531;28;20155;-80
2022/12/03 11:58:48;;;;;;;3.60;3.10;;;8.00;99.90;;;;;;5052057;28;20056;-81
2022/12/03 12:01:34;;;;;;;4.05;3.10;;;8.00;99.90;;;;;;5017002;28;20388;-81
2022/12/03 12:04:05;;;;;;;4.30;2.83;;;8.10;99.90;;;;;;5056880;28;20420;-80
2022/12/03 12:06:42;;;;;;;3.75;2.80;;;8.10;99.90;;;;;;5041066;28;20462;-80
2022/12/03 12:09:09;;;;;;;3.80;2.67;;;8.10;99.90;;;;;;5041034;28;20423;-79
2022/12/03 12:11:39;;;;;;;3.92;2.65;;;8.20;99.90;;;;;;5056348;28;20052;-78
2022/12/03 12:14:10;;;;;;;4.30;2.78;;;8.20;99.90;;;;;;5056305;28;20498;-78
2022/12/03 12:16:53;;;;;;;5.72;3.92;;;8.20;99.90;;;;;;5041243;28;20121;-78
2022/12/03 12:19:38;;;;;;;5.20;3.28;;;8.20;99.90;;;;;;5052934;28;20184;-78
2022/12/03 12:22:15;;;;;;;4.22;2.92;;;8.20;99.90;;;;;;5039306;28;20375;-77
2022/12/03 12:24:50;;;;;;;5.35;2.90;;;8.20;99.90;;;;;;5058409;28;20048;-77
2022/12/03 12:27:20;;;;;;;4.45;2.90;;;8.30;99.90;;;;;;5055443;28;20053;-78
2022/12/03 12:29:54;;;;;;;4.40;3.30;;;8.20;99.90;;;;;;5053705;28;20071;-78
2022/12/03 12:32:44;;;;;;;4.88;3.25;;;8.20;99.90;;;;;;5037701;28;20053;-79
2022/12/03 12:35:28;;;;;;;3.92;3.17;;;8.20;99.90;;;;;;5040474;28;20554;-77
2022/12/03 12:37:58;;;;;;;3.22;2.50;;;8.10;99.90;;;;;;5054697;28;20123;-78
2022/12/03 12:40:28;;;;;;;3.97;2.70;;;8.10;99.90;;;;;;5065479;28;20228;-78
2022/12/03 12:42:58;;;;;;;3.90;2.47;;;8.10;99.90;;;;;;5043065;28;20098;-79
2022/12/03 12:45:29;;;;;;;4.18;2.83;;;8.10;99.90;;;;;;5037067;28;20057;-78
2022/12/03 12:48:18;;;;;;;3.80;2.90;;;8.20;99.90;;;;;;5055647;28;20049;-78
2022/12/03 12:50:46;;;;;;;4.15;3.00;;;8.20;99.90;;;;;;5056535;28;20048;-79
2022/12/03 12:53:26;;;;;;;3.85;2.70;;;8.30;99.90;;;;;;5043262;28;20059;-78
2022/12/03 12:56:23;;;;;;;4.70;2.75;;;8.40;99.90;;;;;;5045136;28;20108;-78
2022/12/03 12:58:49;;;;;;;4.05;2.88;;;8.30;99.90;;;;;;5049696;28;20055;-79
2022/12/03 13:01:22;;;;;;;4.15;2.78;;;8.30;99.90;;;;;;5040135;28;20607;-79
2022/12/03 13:03:49;;;;;;;5.53;4.18;;;8.30;99.90;;;;;;5039641;28;20055;-79
2022/12/03 13:06:16;;;;;;;5.85;4.20;;;8.20;99.90;;;;;;5038751;28;20052;-80
2022/12/03 13:08:44;;;;;;;5.95;4.65;;;8.10;99.90;;;;;;5056607;28;20776;-79
2022/12/03 13:11:33;;;;;;;5.28;4.20;;;8.20;99.90;;;;;;5046099;28;20048;-79
2022/12/03 13:14:09;;;;;;;5.43;4.07;;;8.20;99.90;;;;;;5061318;28;20045;-79
2022/12/03 13:16:36;;;;;;;5.38;4.10;;;8.10;99.90;;;;;;5023000;28;20505;-79
2022/12/03 13:19:31;;;;;;;5.53;4.38;;;8.10;99.90;;;;;;5060778;28;20045;-78
2022/12/03 13:22:00;;;;;;;7.38;5.45;;;8.10;99.90;;;;;;5056065;28;20055;-78
2022/12/03 13:24:31;;;;;;;8.57;6.55;;;8.00;99.90;;;;;;5031918;28;20113;-79
2022/12/03 13:26:59;;;;;;;9.48;7.03;;;8.00;99.90;;;;;;5053891;28;20197;-79
2022/12/03 13:29:26;;;;;;;6.68;5.28;;;7.90;99.90;;;;;;5053588;28;20510;-79
2022/12/03 13:31:57;;;;;;;7.53;6.18;;;7.90;99.90;;;;;;5038410;28;20053;-80
2022/12/03 13:34:26;;;;;;;7.75;5.65;;;7.90;99.90;;;;;;5054378;28;20056;-79